CSY8 weather

Public forecast

Using degrees Celsius for public forecast. Weather courtesy of forecast.io.

Closest aviation weather report (METAR) to Natashquan (Lac De L'Avion) Seaplane Base

Closest report is Natashquan Airport, 1.4 nm (2.5 km) W. Retrieved 2020/08/11 19:00 UTC (9 minutes ago):

CYNA 111900Z AUTO 19014G20KT 9SM CLR 24/19 A2979 RMK SLP089 DENSITY ALT 1200FT

Closest aviation forecast (TAF) to Natashquan (Lac De L'Avion) Seaplane Base

Closest forecast is Natashquan Airport, 1.4 nm (2.5 km) W. Retrieved 2020/08/11 14:00 UTC (5 hours ago):

TAF CYNA 111339Z 1114/1202 15008KT P6SM SCT015 TEMPO 1114/1116 BKN015 FM111600 19010G20KT P6SM FEW050 SCT100 BECMG 1116/1118 20015G25KT BECMG 1122/1124 19012KT RMK FCST BASED ON AUTO OBS NXT FCST BY 112000Z